createdAt,value
2023-03-23T15:58:20.725Z,21.90
2023-03-23T16:00:48.420Z,15.40
2023-03-23T16:03:24.323Z,12.68
2023-03-23T16:05:51.351Z,11.63
2023-03-23T16:08:17.956Z,11.55
2023-03-23T16:10:44.574Z,12.20
2023-03-23T16:13:11.507Z,13.48
2023-03-23T16:15:38.008Z,12.45
2023-03-23T16:18:04.458Z,12.95
2023-03-23T16:20:33.020Z,12.13
2023-03-23T16:23:00.292Z,11.55
2023-03-23T16:25:27.085Z,10.98
2023-03-23T16:27:54.450Z,12.60
2023-03-23T16:30:24.727Z,12.57
2023-03-23T16:32:51.800Z,11.43
2023-03-23T16:35:18.910Z,11.55
2023-03-23T16:37:47.110Z,11.95
2023-03-23T16:40:15.069Z,11.80
2023-03-23T16:42:44.438Z,11.63
2023-03-23T16:45:12.287Z,11.90
2023-03-23T16:47:39.769Z,11.75
2023-03-23T16:50:08.140Z,12.27
2023-03-23T16:52:34.608Z,12.32
2023-03-23T16:55:14.504Z,12.23
2023-03-23T16:57:42.087Z,13.32
2023-03-23T17:00:15.257Z,11.70
2023-03-23T17:02:43.617Z,12.30
2023-03-23T17:05:14.127Z,12.43
2023-03-23T17:07:41.795Z,12.18
2023-03-23T17:10:10.045Z,13.48
2023-03-23T17:12:36.831Z,12.23
2023-03-23T17:15:04.250Z,12.98
2023-03-23T17:17:30.957Z,12.20
2023-03-23T17:19:57.434Z,12.25
2023-03-23T17:22:24.723Z,10.00
2023-03-23T17:24:51.896Z,11.27
2023-03-23T17:27:20.482Z,13.13
2023-03-23T17:29:46.934Z,13.05
2023-03-23T17:32:13.943Z,11.80
2023-03-23T17:34:40.858Z,12.02
2023-03-23T17:37:08.065Z,12.38
2023-03-23T17:39:42.317Z,13.23
2023-03-23T17:42:10.322Z,13.40
2023-03-23T17:44:40.492Z,14.25
2023-03-23T17:47:06.932Z,14.23
2023-03-23T17:49:33.366Z,15.60
2023-03-23T17:52:00.286Z,15.48
2023-03-23T17:54:29.508Z,14.10
2023-03-23T17:56:58.402Z,14.55
2023-03-23T17:59:25.946Z,14.77
2023-03-23T18:01:53.632Z,14.10
2023-03-23T18:04:20.214Z,15.27
2023-03-23T18:06:50.650Z,14.38
2023-03-23T18:09:17.014Z,14.07
2023-03-23T18:11:43.796Z,13.38
2023-03-23T18:14:10.279Z,13.63
2023-03-23T18:16:37.041Z,12.93
2023-03-23T18:19:03.743Z,14.15
2023-03-23T18:21:30.245Z,13.40
2023-03-23T18:23:59.916Z,13.93
2023-03-23T18:26:27.721Z,14.35
2023-03-23T18:28:54.993Z,13.10
2023-03-23T18:31:22.121Z,12.60
2023-03-23T18:33:51.030Z,13.27
2023-03-23T18:36:20.553Z,14.38
2023-03-23T18:38:47.714Z,13.98
2023-03-23T18:41:15.508Z,14.07
2023-03-23T18:43:42.065Z,13.90
2023-03-23T18:46:08.754Z,13.05
2023-03-23T18:48:36.141Z,13.43
2023-03-23T18:51:03.104Z,12.85
2023-03-23T18:53:29.926Z,13.85
2023-03-23T18:56:10.083Z,14.30
2023-03-23T18:58:37.202Z,13.30
2023-03-23T19:01:09.557Z,13.38
2023-03-23T19:03:37.788Z,11.85
2023-03-23T19:06:04.739Z,12.15
2023-03-23T19:08:31.964Z,12.07
2023-03-23T19:11:01.657Z,12.02
2023-03-23T19:13:29.865Z,12.00
2023-03-23T19:15:56.678Z,11.73
2023-03-23T19:18:23.317Z,12.60
2023-03-23T19:21:13.670Z,13.00
2023-03-23T19:23:41.319Z,12.48
2023-03-23T19:26:07.803Z,11.45
2023-03-23T19:31:07.602Z,11.55
2023-03-23T19:33:40.320Z,11.98
2023-03-23T19:36:12.261Z,12.50
2023-03-23T19:38:39.969Z,10.82
2023-03-23T19:41:06.831Z,10.65
2023-03-23T19:43:33.873Z,11.52
2023-03-23T19:46:00.727Z,12.15
2023-03-23T19:48:28.075Z,12.05
2023-03-23T19:50:57.745Z,12.30
2023-03-23T19:53:26.498Z,11.07
2023-03-23T19:55:53.228Z,11.18
2023-03-23T19:58:20.481Z,11.25
2023-03-23T20:00:48.581Z,12.57
2023-03-23T20:03:15.952Z,12.20
2023-03-23T20:05:42.860Z,11.90
2023-03-23T20:08:09.951Z,11.75
2023-03-23T20:10:37.329Z,12.65
2023-03-23T20:13:05.246Z,12.40
2023-03-23T20:15:33.062Z,11.75
2023-03-23T20:18:00.893Z,11.05
2023-03-23T20:20:28.114Z,12.18
2023-03-23T20:22:56.545Z,11.48
2023-03-23T20:25:28.176Z,11.20
2023-03-23T20:27:57.863Z,11.52
2023-03-23T20:30:24.539Z,11.73
2023-03-23T20:32:53.526Z,11.10
2023-03-23T20:35:22.568Z,11.60
2023-03-23T20:37:50.590Z,11.73
2023-03-23T20:40:17.341Z,12.32
2023-03-23T20:42:44.066Z,10.95
2023-03-23T20:45:14.938Z,12.38
2023-03-23T20:47:44.199Z,11.32
2023-03-23T20:50:12.359Z,11.50
2023-03-23T20:52:40.597Z,11.68
2023-03-23T20:55:07.556Z,13.13
2023-03-23T20:57:34.518Z,10.13
2023-03-23T21:00:02.407Z,11.18
2023-03-23T21:02:29.949Z,11.35
2023-03-23T21:04:58.146Z,10.63
2023-03-23T21:07:27.300Z,11.40
2023-03-23T21:09:53.730Z,11.15
2023-03-23T21:12:20.121Z,11.10
2023-03-23T21:14:46.592Z,11.18
2023-03-23T21:17:13.071Z,11.40
2023-03-23T21:19:39.926Z,11.07
2023-03-23T21:22:06.932Z,11.73
2023-03-23T21:24:37.412Z,11.40
2023-03-23T21:27:04.291Z,11.02
2023-03-23T21:29:31.113Z,11.50
2023-03-23T21:34:27.320Z,11.18
2023-03-23T21:36:53.707Z,11.18
2023-03-23T21:39:21.113Z,11.30
2023-03-23T21:41:49.616Z,13.75
2023-03-23T21:44:18.118Z,13.23
2023-03-23T21:46:44.521Z,14.32
2023-03-23T21:49:14.206Z,13.27
2023-03-23T21:51:41.806Z,15.27
2023-03-23T21:54:09.175Z,16.48
2023-03-23T21:56:35.801Z,17.38
2023-03-23T21:59:03.555Z,20.13
2023-03-23T22:01:30.307Z,24.00
2023-03-23T22:03:57.944Z,27.13
2023-03-23T22:06:26.807Z,27.13
2023-03-23T22:08:54.039Z,31.52
2023-03-23T22:11:26.508Z,36.15
2023-03-23T22:13:54.711Z,34.78
2023-03-23T22:16:22.480Z,35.00
2023-03-23T22:18:51.151Z,33.22
2023-03-23T22:21:19.736Z,31.17
2023-03-23T22:23:46.620Z,33.10
2023-03-23T22:26:14.604Z,36.63
2023-03-23T22:28:41.961Z,40.63
2023-03-23T22:31:16.969Z,40.65
2023-03-23T22:33:43.480Z,45.55
2023-03-23T22:36:10.664Z,55.10
2023-03-23T22:38:40.292Z,55.72
2023-03-23T22:41:08.053Z,63.47
2023-03-23T22:43:36.061Z,59.55
2023-03-23T22:46:03.239Z,67.65
2023-03-23T22:48:29.894Z,65.28
2023-03-23T22:50:56.331Z,64.70
2023-03-23T22:53:22.804Z,61.75
2023-03-23T22:55:52.844Z,60.25
2023-03-23T22:58:19.222Z,64.68
2023-03-23T23:00:48.896Z,63.15
2023-03-23T23:03:16.546Z,64.15
2023-03-23T23:05:45.822Z,69.72
2023-03-23T23:08:14.134Z,63.50
2023-03-23T23:10:44.618Z,66.55
2023-03-23T23:13:12.692Z,62.13
2023-03-23T23:15:43.549Z,70.03
2023-03-23T23:18:10.262Z,63.60
2023-03-23T23:20:37.537Z,73.35
2023-03-23T23:23:04.691Z,76.05
2023-03-23T23:25:32.338Z,74.55
2023-03-23T23:28:00.430Z,75.43
2023-03-23T23:30:27.649Z,77.53
2023-03-23T23:32:55.006Z,82.95
2023-03-23T23:35:22.166Z,82.85
2023-03-23T23:37:49.040Z,82.40
2023-03-23T23:40:17.248Z,85.93
2023-03-23T23:42:46.151Z,83.55
2023-03-23T23:45:13.958Z,68.00
2023-03-23T23:47:40.858Z,88.40
2023-03-23T23:50:09.363Z,80.63
2023-03-23T23:52:37.293Z,80.53
2023-03-23T23:55:06.590Z,74.18
2023-03-23T23:57:33.590Z,75.38
